sensor_id;sensor_type;location;lat;lon;timestamp;P1;durP1;ratioP1;P2;durP2;ratioP2
47289;SDS011;33197;52.524;13.444;2022-12-18T00:01:22;51.78;;;28.75;;
47289;SDS011;33197;52.524;13.444;2022-12-18T00:03:55;50.17;;;28.67;;
47289;SDS011;33197;52.524;13.444;2022-12-18T00:06:23;54.25;;;30.33;;
47289;SDS011;33197;52.524;13.444;2022-12-18T00:08:51;48.88;;;27.35;;
47289;SDS011;33197;52.524;13.444;2022-12-18T00:11:19;53.65;;;29.40;;
47289;SDS011;33197;52.524;13.444;2022-12-18T00:13:48;47.38;;;26.10;;
47289;SDS011;33197;52.524;13.444;2022-12-18T00:16:17;49.63;;;27.08;;
47289;SDS011;33197;52.524;13.444;2022-12-18T00:18:49;54.75;;;28.02;;
47289;SDS011;33197;52.524;13.444;2022-12-18T00:21:17;48.35;;;28.48;;
47289;SDS011;33197;52.524;13.444;2022-12-18T00:23:45;50.65;;;29.63;;
47289;SDS011;33197;52.524;13.444;2022-12-18T00:26:15;49.63;;;28.02;;
47289;SDS011;33197;52.524;13.444;2022-12-18T00:28:44;53.00;;;27.90;;
47289;SDS011;33197;52.524;13.444;2022-12-18T00:31:15;49.97;;;27.77;;
47289;SDS011;33197;52.524;13.444;2022-12-18T00:33:44;53.42;;;28.88;;
47289;SDS011;33197;52.524;13.444;2022-12-18T00:36:22;46.97;;;27.15;;
47289;SDS011;33197;52.524;13.444;2022-12-18T00:38:52;51.67;;;28.95;;
47289;SDS011;33197;52.524;13.444;2022-12-18T00:41:20;54.35;;;30.08;;
47289;SDS011;33197;52.524;13.444;2022-12-18T00:44:08;54.90;;;29.50;;
47289;SDS011;33197;52.524;13.444;2022-12-18T00:46:37;50.72;;;29.83;;
47289;SDS011;33197;52.524;13.444;2022-12-18T00:49:04;60.60;;;30.95;;
47289;SDS011;33197;52.524;13.444;2022-12-18T00:51:32;55.42;;;30.67;;
47289;SDS011;33197;52.524;13.444;2022-12-18T00:53:59;50.47;;;28.15;;
47289;SDS011;33197;52.524;13.444;2022-12-18T00:56:26;49.53;;;27.33;;
47289;SDS011;33197;52.524;13.444;2022-12-18T00:58:54;52.17;;;27.70;;
47289;SDS011;33197;52.524;13.444;2022-12-18T01:01:21;49.63;;;27.90;;
47289;SDS011;33197;52.524;13.444;2022-12-18T01:03:48;46.97;;;25.92;;
47289;SDS011;33197;52.524;13.444;2022-12-18T01:06:16;44.60;;;26.27;;
47289;SDS011;33197;52.524;13.444;2022-12-18T01:08:43;42.90;;;25.75;;
47289;SDS011;33197;52.524;13.444;2022-12-18T01:11:12;46.58;;;24.63;;
47289;SDS011;33197;52.524;13.444;2022-12-18T01:13:41;44.03;;;24.20;;
47289;SDS011;33197;52.524;13.444;2022-12-18T01:16:10;45.20;;;25.65;;
47289;SDS011;33197;52.524;13.444;2022-12-18T01:18:38;48.08;;;25.80;;
47289;SDS011;33197;52.524;13.444;2022-12-18T01:21:06;47.97;;;26.85;;
47289;SDS011;33197;52.524;13.444;2022-12-18T01:23:38;47.78;;;27.33;;
47289;SDS011;33197;52.524;13.444;2022-12-18T01:26:09;56.20;;;28.23;;
47289;SDS011;33197;52.524;13.444;2022-12-18T01:28:38;47.72;;;27.90;;
47289;SDS011;33197;52.524;13.444;2022-12-18T01:31:41;47.72;;;26.92;;
47289;SDS011;33197;52.524;13.444;2022-12-18T01:34:00;45.97;;;24.75;;
47289;SDS011;33197;52.524;13.444;2022-12-18T01:36:29;40.85;;;23.08;;
47289;SDS011;33197;52.524;13.444;2022-12-18T01:39:04;47.75;;;24.23;;
47289;SDS011;33197;52.524;13.444;2022-12-18T01:41:33;58.17;;;26.50;;
47289;SDS011;33197;52.524;13.444;2022-12-18T01:52:53;55.55;;;27.85;;
47289;SDS011;33197;52.524;13.444;2022-12-18T01:55:23;57.67;;;30.27;;
47289;SDS011;33197;52.524;13.444;2022-12-18T01:57:52;56.30;;;30.45;;
47289;SDS011;33197;52.524;13.444;2022-12-18T02:00:21;53.60;;;28.88;;
47289;SDS011;33197;52.524;13.444;2022-12-18T02:02:50;65.13;;;32.63;;
47289;SDS011;33197;52.524;13.444;2022-12-18T02:05:18;63.17;;;32.90;;
47289;SDS011;33197;52.524;13.444;2022-12-18T02:10:57;62.63;;;32.63;;
47289;SDS011;33197;52.524;13.444;2022-12-18T02:14:00;81.30;;;35.08;;
47289;SDS011;33197;52.524;13.444;2022-12-18T02:16:43;76.57;;;38.33;;
47289;SDS011;33197;52.524;13.444;2022-12-18T02:27:48;82.88;;;38.85;;
47289;SDS011;33197;52.524;13.444;2022-12-18T02:30:15;71.53;;;35.50;;
47289;SDS011;33197;52.524;13.444;2022-12-18T02:32:44;86.93;;;41.63;;
47289;SDS011;33197;52.524;13.444;2022-12-18T02:35:15;84.40;;;37.70;;
47289;SDS011;33197;52.524;13.444;2022-12-18T02:37:44;75.90;;;37.55;;
47289;SDS011;33197;52.524;13.444;2022-12-18T02:40:13;80.50;;;40.47;;
47289;SDS011;33197;52.524;13.444;2022-12-18T02:42:41;92.68;;;42.88;;
47289;SDS011;33197;52.524;13.444;2022-12-18T02:45:08;95.82;;;43.35;;
47289;SDS011;33197;52.524;13.444;2022-12-18T02:47:37;93.85;;;44.65;;
47289;SDS011;33197;52.524;13.444;2022-12-18T02:50:24;88.18;;;44.25;;
47289;SDS011;33197;52.524;13.444;2022-12-18T03:01:15;90.87;;;41.47;;
47289;SDS011;33197;52.524;13.444;2022-12-18T03:03:49;97.57;;;46.50;;
47289;SDS011;33197;52.524;13.444;2022-12-18T03:06:23;103.72;;;48.53;;
47289;SDS011;33197;52.524;13.444;2022-12-18T03:08:57;90.65;;;44.28;;
47289;SDS011;33197;52.524;13.444;2022-12-18T03:11:27;89.22;;;43.83;;
47289;SDS011;33197;52.524;13.444;2022-12-18T03:14:15;80.25;;;40.13;;
47289;SDS011;33197;52.524;13.444;2022-12-18T03:16:43;83.88;;;42.10;;
47289;SDS011;33197;52.524;13.444;2022-12-18T03:19:15;87.95;;;42.08;;
47289;SDS011;33197;52.524;13.444;2022-12-18T03:21:45;80.97;;;39.92;;
47289;SDS011;33197;52.524;13.444;2022-12-18T03:24:14;79.45;;;38.50;;
47289;SDS011;33197;52.524;13.444;2022-12-18T03:26:43;70.70;;;37.30;;
47289;SDS011;33197;52.524;13.444;2022-12-18T03:29:17;67.95;;;35.05;;
47289;SDS011;33197;52.524;13.444;2022-12-18T03:31:49;72.15;;;36.45;;
47289;SDS011;33197;52.524;13.444;2022-12-18T03:34:21;72.97;;;37.88;;
47289;SDS011;33197;52.524;13.444;2022-12-18T03:36:50;68.65;;;36.05;;
47289;SDS011;33197;52.524;13.444;2022-12-18T03:39:18;67.80;;;36.38;;
47289;SDS011;33197;52.524;13.444;2022-12-18T03:41:56;67.55;;;33.53;;
47289;SDS011;33197;52.524;13.444;2022-12-18T03:44:35;64.55;;;32.42;;
47289;SDS011;33197;52.524;13.444;2022-12-18T03:47:12;56.53;;;31.17;;
47289;SDS011;33197;52.524;13.444;2022-12-18T03:52:28;60.65;;;32.33;;
47289;SDS011;33197;52.524;13.444;2022-12-18T03:54:57;57.67;;;30.48;;
47289;SDS011;33197;52.524;13.444;2022-12-18T03:57:27;64.72;;;30.85;;
47289;SDS011;33197;52.524;13.444;2022-12-18T04:00:11;59.78;;;31.85;;
47289;SDS011;33197;52.524;13.444;2022-12-18T04:02:45;59.55;;;30.45;;
47289;SDS011;33197;52.524;13.444;2022-12-18T04:05:16;60.70;;;31.15;;
47289;SDS011;33197;52.524;13.444;2022-12-18T04:07:45;58.97;;;29.38;;
47289;SDS011;33197;52.524;13.444;2022-12-18T04:10:13;54.15;;;28.83;;
47289;SDS011;33197;52.524;13.444;2022-12-18T04:12:41;57.78;;;31.13;;
47289;SDS011;33197;52.524;13.444;2022-12-18T04:15:09;58.67;;;28.98;;
47289;SDS011;33197;52.524;13.444;2022-12-18T04:17:37;59.88;;;30.33;;
47289;SDS011;33197;52.524;13.444;2022-12-18T04:20:05;56.42;;;29.88;;
47289;SDS011;33197;52.524;13.444;2022-12-18T04:22:32;54.05;;;29.58;;
47289;SDS011;33197;52.524;13.444;2022-12-18T04:25:00;54.67;;;27.58;;
47289;SDS011;33197;52.524;13.444;2022-12-18T04:27:27;56.55;;;29.70;;
47289;SDS011;33197;52.524;13.444;2022-12-18T04:29:54;58.97;;;28.92;;
47289;SDS011;33197;52.524;13.444;2022-12-18T04:32:21;55.90;;;28.20;;
47289;SDS011;33197;52.524;13.444;2022-12-18T04:34:48;54.25;;;26.90;;
47289;SDS011;33197;52.524;13.444;2022-12-18T04:37:15;53.40;;;26.58;;
47289;SDS011;33197;52.524;13.444;2022-12-18T04:39:42;57.55;;;27.60;;
47289;SDS011;33197;52.524;13.444;2022-12-18T04:42:10;60.03;;;29.30;;
47289;SDS011;33197;52.524;13.444;2022-12-18T04:44:37;55.75;;;27.77;;
47289;SDS011;33197;52.524;13.444;2022-12-18T04:47:04;50.45;;;27.38;;
47289;SDS011;33197;52.524;13.444;2022-12-18T04:49:31;54.67;;;26.83;;
47289;SDS011;33197;52.524;13.444;2022-12-18T04:51:58;57.47;;;28.85;;
47289;SDS011;33197;52.524;13.444;2022-12-18T04:54:25;56.13;;;26.90;;
47289;SDS011;33197;52.524;13.444;2022-12-18T04:56:52;52.95;;;26.23;;
47289;SDS011;33197;52.524;13.444;2022-12-18T04:59:20;49.38;;;24.70;;
47289;SDS011;33197;52.524;13.444;2022-12-18T05:01:49;52.13;;;27.25;;
47289;SDS011;33197;52.524;13.444;2022-12-18T05:04:16;54.90;;;26.10;;
47289;SDS011;33197;52.524;13.444;2022-12-18T05:06:43;57.63;;;27.02;;
47289;SDS011;33197;52.524;13.444;2022-12-18T05:09:11;53.55;;;27.38;;
47289;SDS011;33197;52.524;13.444;2022-12-18T05:11:38;55.78;;;27.95;;
47289;SDS011;33197;52.524;13.444;2022-12-18T05:14:05;58.92;;;27.10;;
47289;SDS011;33197;52.524;13.444;2022-12-18T05:16:32;59.75;;;26.67;;
47289;SDS011;33197;52.524;13.444;2022-12-18T05:18:59;55.97;;;26.67;;
47289;SDS011;33197;52.524;13.444;2022-12-18T05:21:26;61.90;;;30.05;;
47289;SDS011;33197;52.524;13.444;2022-12-18T05:23:54;54.30;;;25.50;;
47289;SDS011;33197;52.524;13.444;2022-12-18T05:26:21;54.65;;;26.13;;
47289;SDS011;33197;52.524;13.444;2022-12-18T05:28:48;62.95;;;28.33;;
47289;SDS011;33197;52.524;13.444;2022-12-18T05:31:15;59.50;;;27.60;;
47289;SDS011;33197;52.524;13.444;2022-12-18T05:33:42;61.35;;;29.08;;
47289;SDS011;33197;52.524;13.444;2022-12-18T05:36:10;56.83;;;28.02;;
47289;SDS011;33197;52.524;13.444;2022-12-18T05:38:38;59.97;;;27.13;;
47289;SDS011;33197;52.524;13.444;2022-12-18T05:41:06;59.83;;;28.00;;
47289;SDS011;33197;52.524;13.444;2022-12-18T05:43:34;64.63;;;29.05;;
47289;SDS011;33197;52.524;13.444;2022-12-18T05:46:04;67.78;;;30.23;;
47289;SDS011;33197;52.524;13.444;2022-12-18T05:48:32;63.00;;;29.45;;
47289;SDS011;33197;52.524;13.444;2022-12-18T05:51:04;62.05;;;28.08;;
47289;SDS011;33197;52.524;13.444;2022-12-18T05:53:33;64.45;;;30.10;;
47289;SDS011;33197;52.524;13.444;2022-12-18T05:56:04;70.25;;;32.90;;
47289;SDS011;33197;52.524;13.444;2022-12-18T05:58:33;69.15;;;32.80;;
47289;SDS011;33197;52.524;13.444;2022-12-18T06:01:08;69.47;;;31.58;;
47289;SDS011;33197;52.524;13.444;2022-12-18T06:03:36;84.43;;;33.17;;
47289;SDS011;33197;52.524;13.444;2022-12-18T06:06:04;72.45;;;32.65;;
47289;SDS011;33197;52.524;13.444;2022-12-18T06:08:31;77.00;;;34.28;;
47289;SDS011;33197;52.524;13.444;2022-12-18T06:10:58;79.93;;;35.80;;
47289;SDS011;33197;52.524;13.444;2022-12-18T06:13:25;85.65;;;36.38;;
47289;SDS011;33197;52.524;13.444;2022-12-18T06:15:52;79.10;;;35.08;;
47289;SDS011;33197;52.524;13.444;2022-12-18T06:18:20;75.95;;;34.63;;
47289;SDS011;33197;52.524;13.444;2022-12-18T06:20:54;74.00;;;33.47;;
47289;SDS011;33197;52.524;13.444;2022-12-18T06:23:22;77.55;;;36.28;;
47289;SDS011;33197;52.524;13.444;2022-12-18T06:25:49;75.95;;;35.35;;
47289;SDS011;33197;52.524;13.444;2022-12-18T06:28:17;77.60;;;35.42;;
47289;SDS011;33197;52.524;13.444;2022-12-18T06:30:45;80.07;;;35.80;;
47289;SDS011;33197;52.524;13.444;2022-12-18T06:33:14;77.20;;;33.40;;
47289;SDS011;33197;52.524;13.444;2022-12-18T06:35:41;79.50;;;37.05;;
47289;SDS011;33197;52.524;13.444;2022-12-18T06:38:09;73.07;;;34.97;;
47289;SDS011;33197;52.524;13.444;2022-12-18T06:40:37;82.95;;;36.95;;
47289;SDS011;33197;52.524;13.444;2022-12-18T06:43:05;72.57;;;34.25;;
47289;SDS011;33197;52.524;13.444;2022-12-18T06:45:32;66.47;;;34.67;;
47289;SDS011;33197;52.524;13.444;2022-12-18T06:48:00;71.90;;;34.15;;
47289;SDS011;33197;52.524;13.444;2022-12-18T06:50:27;75.32;;;35.20;;
47289;SDS011;33197;52.524;13.444;2022-12-18T06:52:55;63.67;;;33.20;;
47289;SDS011;33197;52.524;13.444;2022-12-18T06:55:22;66.20;;;33.13;;
47289;SDS011;33197;52.524;13.444;2022-12-18T06:57:49;65.80;;;32.90;;
47289;SDS011;33197;52.524;13.444;2022-12-18T07:00:17;70.30;;;33.45;;
47289;SDS011;33197;52.524;13.444;2022-12-18T07:02:44;67.00;;;32.20;;
47289;SDS011;33197;52.524;13.444;2022-12-18T07:05:11;68.22;;;31.83;;
47289;SDS011;33197;52.524;13.444;2022-12-18T07:07:38;66.90;;;31.42;;
47289;SDS011;33197;52.524;13.444;2022-12-18T07:10:06;66.30;;;31.80;;
47289;SDS011;33197;52.524;13.444;2022-12-18T07:12:33;65.50;;;31.67;;
47289;SDS011;33197;52.524;13.444;2022-12-18T07:15:00;69.68;;;32.15;;
47289;SDS011;33197;52.524;13.444;2022-12-18T07:17:27;65.43;;;33.60;;
47289;SDS011;33197;52.524;13.444;2022-12-18T07:19:56;61.17;;;30.90;;
47289;SDS011;33197;52.524;13.444;2022-12-18T07:22:24;64.13;;;31.67;;
47289;SDS011;33197;52.524;13.444;2022-12-18T07:24:52;65.82;;;32.47;;
47289;SDS011;33197;52.524;13.444;2022-12-18T07:27:19;65.75;;;33.00;;
47289;SDS011;33197;52.524;13.444;2022-12-18T07:29:46;63.30;;;30.80;;
47289;SDS011;33197;52.524;13.444;2022-12-18T07:32:13;64.70;;;32.80;;
47289;SDS011;33197;52.524;13.444;2022-12-18T07:34:40;60.08;;;30.15;;
47289;SDS011;33197;52.524;13.444;2022-12-18T07:37:08;66.03;;;32.35;;
47289;SDS011;33197;52.524;13.444;2022-12-18T07:39:35;66.32;;;33.10;;
47289;SDS011;33197;52.524;13.444;2022-12-18T07:42:02;64.88;;;31.17;;
47289;SDS011;33197;52.524;13.444;2022-12-18T07:44:48;70.85;;;33.33;;
47289;SDS011;33197;52.524;13.444;2022-12-18T07:47:16;67.50;;;32.08;;
47289;SDS011;33197;52.524;13.444;2022-12-18T07:49:43;59.88;;;30.88;;
47289;SDS011;33197;52.524;13.444;2022-12-18T07:52:10;66.47;;;33.00;;
47289;SDS011;33197;52.524;13.444;2022-12-18T07:54:39;66.30;;;32.85;;
47289;SDS011;33197;52.524;13.444;2022-12-18T07:57:07;66.45;;;31.42;;
47289;SDS011;33197;52.524;13.444;2022-12-18T07:59:53;62.75;;;30.85;;
47289;SDS011;33197;52.524;13.444;2022-12-18T08:02:20;73.07;;;34.45;;
47289;SDS011;33197;52.524;13.444;2022-12-18T08:04:47;66.85;;;33.42;;
47289;SDS011;33197;52.524;13.444;2022-12-18T08:07:14;63.33;;;31.85;;
47289;SDS011;33197;52.524;13.444;2022-12-18T08:09:41;68.88;;;33.42;;
47289;SDS011;33197;52.524;13.444;2022-12-18T08:12:09;62.33;;;32.67;;
47289;SDS011;33197;52.524;13.444;2022-12-18T08:14:36;66.65;;;32.53;;
47289;SDS011;33197;52.524;13.444;2022-12-18T08:17:03;60.40;;;32.97;;
47289;SDS011;33197;52.524;13.444;2022-12-18T08:19:30;57.28;;;32.63;;
47289;SDS011;33197;52.524;13.444;2022-12-18T08:21:57;61.20;;;33.10;;
47289;SDS011;33197;52.524;13.444;2022-12-18T08:24:25;57.08;;;30.75;;
47289;SDS011;33197;52.524;13.444;2022-12-18T08:26:52;50.78;;;28.60;;
47289;SDS011;33197;52.524;13.444;2022-12-18T08:29:39;58.15;;;30.67;;
47289;SDS011;33197;52.524;13.444;2022-12-18T08:32:06;56.25;;;28.70;;
47289;SDS011;33197;52.524;13.444;2022-12-18T08:34:34;51.53;;;28.27;;
47289;SDS011;33197;52.524;13.444;2022-12-18T08:37:01;50.80;;;29.40;;
47289;SDS011;33197;52.524;13.444;2022-12-18T08:39:28;53.70;;;27.75;;
47289;SDS011;33197;52.524;13.444;2022-12-18T08:41:55;54.50;;;29.52;;
47289;SDS011;33197;52.524;13.444;2022-12-18T08:44:41;59.38;;;31.45;;
47289;SDS011;33197;52.524;13.444;2022-12-18T08:47:08;51.75;;;28.08;;
47289;SDS011;33197;52.524;13.444;2022-12-18T08:49:35;53.78;;;29.77;;
47289;SDS011;33197;52.524;13.444;2022-12-18T08:52:03;59.17;;;30.38;;
47289;SDS011;33197;52.524;13.444;2022-12-18T08:54:30;53.88;;;30.63;;
47289;SDS011;33197;52.524;13.444;2022-12-18T08:56:57;57.67;;;31.80;;
47289;SDS011;33197;52.524;13.444;2022-12-18T08:59:24;53.08;;;28.33;;
47289;SDS011;33197;52.524;13.444;2022-12-18T09:01:53;56.60;;;29.70;;
47289;SDS011;33197;52.524;13.444;2022-12-18T09:04:21;48.97;;;26.95;;
47289;SDS011;33197;52.524;13.444;2022-12-18T09:06:48;49.47;;;26.55;;
47289;SDS011;33197;52.524;13.444;2022-12-18T09:09:16;51.63;;;27.77;;
47289;SDS011;33197;52.524;13.444;2022-12-18T09:11:43;48.58;;;25.65;;
47289;SDS011;33197;52.524;13.444;2022-12-18T09:14:11;51.88;;;27.92;;
47289;SDS011;33197;52.524;13.444;2022-12-18T09:16:38;54.17;;;27.73;;
47289;SDS011;33197;52.524;13.444;2022-12-18T09:19:06;57.95;;;28.67;;
47289;SDS011;33197;52.524;13.444;2022-12-18T09:21:36;53.65;;;27.35;;
47289;SDS011;33197;52.524;13.444;2022-12-18T09:24:04;57.67;;;29.75;;
47289;SDS011;33197;52.524;13.444;2022-12-18T09:26:34;51.40;;;28.17;;
47289;SDS011;33197;52.524;13.444;2022-12-18T09:29:02;53.40;;;28.05;;
47289;SDS011;33197;52.524;13.444;2022-12-18T09:31:30;54.83;;;28.27;;
47289;SDS011;33197;52.524;13.444;2022-12-18T09:33:57;54.38;;;29.88;;
47289;SDS011;33197;52.524;13.444;2022-12-18T09:36:25;52.25;;;30.05;;
47289;SDS011;33197;52.524;13.444;2022-12-18T09:38:52;59.42;;;30.30;;
47289;SDS011;33197;52.524;13.444;2022-12-18T09:41:35;55.08;;;30.55;;
47289;SDS011;33197;52.524;13.444;2022-12-18T09:48:26;58.03;;;30.05;;
47289;SDS011;33197;52.524;13.444;2022-12-18T09:50:57;57.28;;;30.25;;
47289;SDS011;33197;52.524;13.444;2022-12-18T09:53:30;57.25;;;30.42;;
47289;SDS011;33197;52.524;13.444;2022-12-18T09:56:00;55.13;;;29.40;;
47289;SDS011;33197;52.524;13.444;2022-12-18T09:58:34;56.80;;;30.52;;
47289;SDS011;33197;52.524;13.444;2022-12-18T10:01:13;59.47;;;30.67;;
47289;SDS011;33197;52.524;13.444;2022-12-18T10:03:41;56.25;;;29.80;;
47289;SDS011;33197;52.524;13.444;2022-12-18T10:06:13;62.40;;;30.27;;
47289;SDS011;33197;52.524;13.444;2022-12-18T10:11:26;60.13;;;29.23;;
47289;SDS011;33197;52.524;13.444;2022-12-18T10:14:10;61.55;;;31.77;;
47289;SDS011;33197;52.524;13.444;2022-12-18T10:16:43;62.67;;;31.55;;
47289;SDS011;33197;52.524;13.444;2022-12-18T10:27:17;62.30;;;33.95;;
47289;SDS011;33197;52.524;13.444;2022-12-18T10:29:45;65.22;;;34.33;;
47289;SDS011;33197;52.524;13.444;2022-12-18T10:32:17;56.47;;;30.63;;
47289;SDS011;33197;52.524;13.444;2022-12-18T10:34:49;60.92;;;32.55;;
47289;SDS011;33197;52.524;13.444;2022-12-18T10:37:27;58.88;;;30.70;;
47289;SDS011;33197;52.524;13.444;2022-12-18T10:42:36;64.30;;;34.90;;
47289;SDS011;33197;52.524;13.444;2022-12-18T10:45:13;61.75;;;33.30;;
47289;SDS011;33197;52.524;13.444;2022-12-18T10:47:46;66.53;;;35.05;;
47289;SDS011;33197;52.524;13.444;2022-12-18T10:50:19;69.93;;;36.35;;
47289;SDS011;33197;52.524;13.444;2022-12-18T10:52:58;64.00;;;34.38;;
47289;SDS011;33197;52.524;13.444;2022-12-18T10:55:29;67.50;;;36.10;;
47289;SDS011;33197;52.524;13.444;2022-12-18T11:06:19;69.57;;;35.53;;
47289;SDS011;33197;52.524;13.444;2022-12-18T11:09:01;62.95;;;33.80;;
47289;SDS011;33197;52.524;13.444;2022-12-18T11:11:39;66.38;;;33.28;;
47289;SDS011;33197;52.524;13.444;2022-12-18T11:14:19;59.45;;;33.15;;
47289;SDS011;33197;52.524;13.444;2022-12-18T11:16:49;67.70;;;33.63;;
47289;SDS011;33197;52.524;13.444;2022-12-18T11:19:39;60.30;;;32.20;;
47289;SDS011;33197;52.524;13.444;2022-12-18T11:22:20;60.22;;;30.05;;
47289;SDS011;33197;52.524;13.444;2022-12-18T11:24:52;59.55;;;32.40;;
47289;SDS011;33197;52.524;13.444;2022-12-18T11:27:40;55.05;;;29.58;;
47289;SDS011;33197;52.524;13.444;2022-12-18T11:32:37;53.85;;;29.45;;
47289;SDS011;33197;52.524;13.444;2022-12-18T11:35:25;52.50;;;28.80;;
47289;SDS011;33197;52.524;13.444;2022-12-18T11:38:04;51.97;;;27.92;;
47289;SDS011;33197;52.524;13.444;2022-12-18T11:40:35;53.72;;;29.02;;
47289;SDS011;33197;52.524;13.444;2022-12-18T11:43:13;51.03;;;26.98;;
47289;SDS011;33197;52.524;13.444;2022-12-18T11:46:10;59.58;;;30.17;;
47289;SDS011;33197;52.524;13.444;2022-12-18T11:51:50;51.08;;;27.13;;
47289;SDS011;33197;52.524;13.444;2022-12-18T11:54:39;56.20;;;28.77;;
47289;SDS011;33197;52.524;13.444;2022-12-18T11:59:55;53.70;;;27.33;;
47289;SDS011;33197;52.524;13.444;2022-12-18T12:08:13;47.67;;;26.98;;
47289;SDS011;33197;52.524;13.444;2022-12-18T12:16:29;47.72;;;26.40;;
47289;SDS011;33197;52.524;13.444;2022-12-18T12:19:06;50.70;;;26.70;;
47289;SDS011;33197;52.524;13.444;2022-12-18T12:21:46;52.97;;;26.95;;
47289;SDS011;33197;52.524;13.444;2022-12-18T12:36:04;49.40;;;26.23;;
47289;SDS011;33197;52.524;13.444;2022-12-18T12:38:58;47.38;;;27.15;;
47289;SDS011;33197;52.524;13.444;2022-12-18T12:41:30;47.00;;;25.10;;
47289;SDS011;33197;52.524;13.444;2022-12-18T12:44:25;45.17;;;24.52;;
47289;SDS011;33197;52.524;13.444;2022-12-18T12:46:58;44.08;;;22.15;;
47289;SDS011;33197;52.524;13.444;2022-12-18T12:49:28;44.65;;;24.63;;
47289;SDS011;33197;52.524;13.444;2022-12-18T12:52:07;45.70;;;24.23;;
47289;SDS011;33197;52.524;13.444;2022-12-18T12:54:38;47.22;;;24.38;;
47289;SDS011;33197;52.524;13.444;2022-12-18T12:57:13;48.55;;;25.02;;
47289;SDS011;33197;52.524;13.444;2022-12-18T12:59:52;46.85;;;24.35;;
47289;SDS011;33197;52.524;13.444;2022-12-18T13:07:57;45.53;;;24.02;;
47289;SDS011;33197;52.524;13.444;2022-12-18T13:10:30;45.38;;;24.30;;
47289;SDS011;33197;52.524;13.444;2022-12-18T13:13:09;41.88;;;23.33;;
47289;SDS011;33197;52.524;13.444;2022-12-18T13:20:36;43.60;;;24.00;;
47289;SDS011;33197;52.524;13.444;2022-12-18T13:25:50;44.92;;;24.95;;
47289;SDS011;33197;52.524;13.444;2022-12-18T13:28:24;43.58;;;24.80;;
47289;SDS011;33197;52.524;13.444;2022-12-18T13:40:53;41.72;;;22.60;;
47289;SDS011;33197;52.524;13.444;2022-12-18T13:51:33;46.15;;;25.55;;
47289;SDS011;33197;52.524;13.444;2022-12-18T14:02:57;43.80;;;27.63;;
47289;SDS011;33197;52.524;13.444;2022-12-18T14:05:30;47.45;;;25.58;;
47289;SDS011;33197;52.524;13.444;2022-12-18T14:08:00;43.10;;;27.00;;
47289;SDS011;33197;52.524;13.444;2022-12-18T14:10:29;45.75;;;29.08;;
47289;SDS011;33197;52.524;13.444;2022-12-18T14:13:19;49.72;;;28.10;;
47289;SDS011;33197;52.524;13.444;2022-12-18T14:15:50;44.38;;;26.20;;
47289;SDS011;33197;52.524;13.444;2022-12-18T14:18:24;54.05;;;30.73;;
47289;SDS011;33197;52.524;13.444;2022-12-18T14:21:21;44.03;;;27.45;;
47289;SDS011;33197;52.524;13.444;2022-12-18T14:24:03;44.05;;;28.17;;
47289;SDS011;33197;52.524;13.444;2022-12-18T14:26:46;43.55;;;25.52;;
47289;SDS011;33197;52.524;13.444;2022-12-18T14:29:20;40.50;;;23.70;;
47289;SDS011;33197;52.524;13.444;2022-12-18T14:34:47;38.00;;;23.67;;
47289;SDS011;33197;52.524;13.444;2022-12-18T14:37:16;47.85;;;26.02;;
47289;SDS011;33197;52.524;13.444;2022-12-18T14:40:01;43.42;;;25.73;;
47289;SDS011;33197;52.524;13.444;2022-12-18T14:42:37;36.42;;;22.15;;
47289;SDS011;33197;52.524;13.444;2022-12-18T14:50:40;34.92;;;19.88;;
47289;SDS011;33197;52.524;13.444;2022-12-18T14:53:18;30.23;;;20.55;;
47289;SDS011;33197;52.524;13.444;2022-12-18T14:55:47;30.77;;;19.52;;
47289;SDS011;33197;52.524;13.444;2022-12-18T14:58:15;30.23;;;19.25;;
47289;SDS011;33197;52.524;13.444;2022-12-18T15:00:44;34.40;;;21.50;;
47289;SDS011;33197;52.524;13.444;2022-12-18T15:03:13;35.72;;;22.77;;
47289;SDS011;33197;52.524;13.444;2022-12-18T15:05:46;33.55;;;21.38;;
47289;SDS011;33197;52.524;13.444;2022-12-18T15:08:24;34.80;;;22.13;;
47289;SDS011;33197;52.524;13.444;2022-12-18T15:10:56;29.85;;;20.13;;
47289;SDS011;33197;52.524;13.444;2022-12-18T15:13:23;35.00;;;21.45;;
47289;SDS011;33197;52.524;13.444;2022-12-18T15:15:52;36.33;;;22.17;;
47289;SDS011;33197;52.524;13.444;2022-12-18T15:18:38;32.97;;;20.52;;
47289;SDS011;33197;52.524;13.444;2022-12-18T15:21:09;33.42;;;21.00;;
47289;SDS011;33197;52.524;13.444;2022-12-18T15:26:11;39.80;;;23.17;;
47289;SDS011;33197;52.524;13.444;2022-12-18T15:36:15;36.72;;;22.42;;
47289;SDS011;33197;52.524;13.444;2022-12-18T15:38:51;38.22;;;23.55;;
47289;SDS011;33197;52.524;13.444;2022-12-18T15:41:22;37.60;;;22.73;;
47289;SDS011;33197;52.524;13.444;2022-12-18T15:43:51;31.90;;;21.73;;
47289;SDS011;33197;52.524;13.444;2022-12-18T15:46:20;35.92;;;21.58;;
47289;SDS011;33197;52.524;13.444;2022-12-18T15:51:36;31.85;;;19.05;;
47289;SDS011;33197;52.524;13.444;2022-12-18T15:54:05;32.45;;;20.75;;
47289;SDS011;33197;52.524;13.444;2022-12-18T15:56:33;28.23;;;19.58;;
47289;SDS011;33197;52.524;13.444;2022-12-18T15:59:19;29.85;;;19.95;;
47289;SDS011;33197;52.524;13.444;2022-12-18T16:01:49;31.75;;;20.50;;
47289;SDS011;33197;52.524;13.444;2022-12-18T16:04:20;31.65;;;19.42;;
47289;SDS011;33197;52.524;13.444;2022-12-18T16:06:48;32.78;;;20.73;;
47289;SDS011;33197;52.524;13.444;2022-12-18T16:09:36;30.73;;;20.20;;
47289;SDS011;33197;52.524;13.444;2022-12-18T16:12:04;32.85;;;22.13;;
47289;SDS011;33197;52.524;13.444;2022-12-18T16:14:32;33.05;;;20.42;;
47289;SDS011;33197;52.524;13.444;2022-12-18T16:17:01;34.05;;;21.20;;
47289;SDS011;33197;52.524;13.444;2022-12-18T16:19:30;33.28;;;20.83;;
47289;SDS011;33197;52.524;13.444;2022-12-18T16:21:58;35.33;;;22.42;;
47289;SDS011;33197;52.524;13.444;2022-12-18T16:24:29;35.92;;;21.83;;
47289;SDS011;33197;52.524;13.444;2022-12-18T16:26:59;37.95;;;23.45;;
47289;SDS011;33197;52.524;13.444;2022-12-18T16:29:27;35.88;;;22.60;;
47289;SDS011;33197;52.524;13.444;2022-12-18T16:36:12;39.03;;;24.40;;
47289;SDS011;33197;52.524;13.444;2022-12-18T16:38:40;37.80;;;24.15;;
47289;SDS011;33197;52.524;13.444;2022-12-18T16:41:15;31.80;;;21.90;;
47289;SDS011;33197;52.524;13.444;2022-12-18T16:44:00;34.25;;;22.75;;
47289;SDS011;33197;52.524;13.444;2022-12-18T19:04:13;53.72;;;33.30;;
47289;SDS011;33197;52.524;13.444;2022-12-18T19:06:40;54.83;;;33.28;;
47289;SDS011;33197;52.524;13.444;2022-12-18T19:29:35;53.33;;;34.20;;
47289;SDS011;33197;52.524;13.444;2022-12-18T19:32:03;54.90;;;33.83;;
47289;SDS011;33197;52.524;13.444;2022-12-18T19:34:31;51.92;;;33.63;;
47289;SDS011;33197;52.524;13.444;2022-12-18T19:36:58;57.03;;;32.72;;
47289;SDS011;33197;52.524;13.444;2022-12-18T19:39:26;54.03;;;31.80;;
47289;SDS011;33197;52.524;13.444;2022-12-18T19:41:53;52.35;;;32.10;;
47289;SDS011;33197;52.524;13.444;2022-12-18T19:44:20;57.00;;;33.90;;